Terminal Aerodrome Forecast
Issued by NWS

Home | Current Version | Previous Version | Text Only | Print | Product List | Glossary On
Versions: 1 2 3 4 5 6 7 8 9 10 11 12 13 14 15 16 17 18 19 20 21 22 23 24 25 26 27 28 29
000
FTUS43 KMKX 221344 AAA
TAFENW
TAF AMD
KENW 221344Z 2214/2312 22011KT 1/2SM FG OVC002
      TEMPO 2214/2215 1/4SM FG OVC003
     FM221500 22011KT 2SM BR BKN003
     FM221800 21012G18KT P6SM SKC
     FM230200 22011KT 4SM BR FEW130
     FM230900 29007KT 2SM BR FEW090=

USA.gov is the U.S. government's official web portal to all federal, state and local government web resources and services.